Main page
METAR-TAF:

METAR-TAF

Airports :

Brive–Dordogne Valley Airport

Brive-la-Gaillarde, France

latitude: 45-02-28N, longitude: 001-28-59E, elevation: 311 m

Current weather observation

The report was made 23 minutes ago, at 01:00 UTC
Wind 4 kt from the North/Northwest
Temperature 1°C
Humidity 75%
Pressure 1019 hPa
Visibility 10 km or more
no clouds below 1500 m and no cumulonimbus

METAR: LFSL 230100Z AUTO 34004KT CAVOK 01/M03 Q1019

Time: 03:23 (01:23 UTC)

Forecast

The report was made 11 hours and 23 minutes ago, at 14:00 UTC
Forecast valid from 22 at 15 UTC to 22 at 24 UTC
Wind 10 kt from the North
Visibility 10 km or more
no clouds below 1500 m and no cumulonimbus
Temporary
from 22 at 15 UTC to 22 at 17 UTC
Wind 15 kt from the North with gusts up to 25 kt

TAF: LFSL 221400Z 2215/2224 36010KT CAVOK TEMPO 2215/2217 36015G25KT

Weather observations and forecasts of more than 4000 airports (METAR and TAF reports).

The available stations are represented by yellow and red dots on the map.

Hover mouse over dot to see the name of the station.

Then click to see weather observations and forecasts.

To change the map : click on the green buttons with a black cross to zoom in, on the green button with a dash to zoom out, or on the green arrows for adjacent maps.


METAR-TAF: